This is the latest recevied weather packets stored in our database for station/object G4KVI. If no packets are shown the sender has not sent any weather packets the latest 10 day(s).
| Time | Temp. | Humidity | Pressure | Rain* | Wind** | Luminosity | Snow |
|---|---|---|---|---|---|---|---|
| 1788086704 | 21.11° C | 68% | 1010.8 hPa | 0 mm | - | 407 W/m² | - |
| 1788086404 | 21.11° C | 67% | 1010.9 hPa | 0 mm | - | 648 W/m² | - |
| 1788086104 | 21.11° C | 66% | 1010.7 hPa | 0 mm | - | 649 W/m² | - |
| 1788085804 | 21.67° C | 66% | 1010.5 hPa | 0 mm | - | 398 W/m² | - |
| 1788085504 | 20.56° C | 70% | 1010.8 hPa | 0 mm | - | 632 W/m² | - |
| 1788085204 | 20.56° C | 70% | 1011 hPa | 0 mm | - | 625 W/m² | - |
| 1788084904 | 20° C | 71% | 1010.8 hPa | 0 mm | - | 563 W/m² | - |
| 1788084604 | 20° C | 73% | 1011.1 hPa | 0 mm | - | 420 W/m² | - |
| 1788084304 | 20.56° C | 73% | 1011.3 hPa | 0 mm | - | 426 W/m² | - |
| 1788084004 | 20° C | 76% | 1011.2 hPa | 0 mm | - | 465 W/m² | - |
| 1788083704 | 19.44° C | 77% | 1011.3 hPa | 0 mm | - | 299 W/m² | - |
| 1788083404 | 19.44° C | 77% | 1011.1 hPa | 0 mm | - | 463 W/m² | - |
| 1788083104 | 20° C | 74% | 1011.4 hPa | 0 mm | - | 373 W/m² | - |
| 1788082804 | 20.56° C | 73% | 1011.1 hPa | 0 mm | - | 326 W/m² | - |
| 1788082504 | 20° C | 75% | 1011.3 hPa | 0 mm | - | 257 W/m² | - |
| 1788082204 | 20° C | 76% | 1011.3 hPa | 0 mm | - | 381 W/m² | - |
| 1788081904 | 19.44° C | 77% | 1011.3 hPa | 0 mm | - | 279 W/m² | - |
| 1788081604 | 20° C | 76% | 1011.4 hPa | 0 mm | - | 254 W/m² | - |
| 1788081304 | 20° C | 76% | 1011.1 hPa | 0 mm | - | 263 W/m² | - |
| 1788081004 | 20° C | 78% | 1011.4 hPa | 0 mm | - | 271 W/m² | - |
| 1788080704 | 19.44° C | 79% | 1011.4 hPa | 0 mm | - | 224 W/m² | - |
| 1788080404 | 19.44° C | 81% | 1011.4 hPa | 0 mm | - | 230 W/m² | - |
| 1788080104 | 18.89° C | 82% | 1011.3 hPa | 0 mm | - | 190 W/m² | - |
| 1788079804 | 18.33° C | 85% | 1011.5 hPa | 0 mm | - | 172 W/m² | - |
| 1788079504 | 17.78° C | 84% | 1011.5 hPa | 0 mm | - | 184 W/m² | - |
* Rain latest hour (hover to see other rain measurements)
** Current wind speed in m/s (hover to see current wind gust speed)